createdAt,value
2017-11-06T00:00:30.923Z,0
2017-11-06T00:01:52.435Z,0
2017-11-06T00:03:14.967Z,0
2017-11-06T00:04:36.467Z,0
2017-11-06T00:05:58.963Z,0
2017-11-06T00:07:21.481Z,0
2017-11-06T00:08:42.983Z,0
2017-11-06T00:10:05.194Z,0
2017-11-06T00:11:27.364Z,0
2017-11-06T00:12:49.550Z,0
2017-11-06T00:14:11.796Z,0
2017-11-06T00:15:32.998Z,0
2017-11-06T00:16:55.210Z,0
2017-11-06T00:18:17.151Z,0
2017-11-06T00:19:39.317Z,0
2017-11-06T00:21:01.489Z,0
2017-11-06T00:22:23.674Z,0
2017-11-06T00:23:45.174Z,0
2017-11-06T00:25:07.033Z,0
2017-11-06T00:26:29.307Z,0
2017-11-06T00:27:51.272Z,0
2017-11-06T00:29:13.103Z,0
2017-11-06T00:30:34.945Z,0
2017-11-06T00:31:57.114Z,0
2017-11-06T00:33:18.951Z,0
2017-11-06T00:34:40.476Z,0
2017-11-06T00:36:02.724Z,0
2017-11-06T00:37:25.149Z,0
2017-11-06T00:38:46.765Z,0
2017-11-06T00:40:08.277Z,0
2017-11-06T00:41:30.894Z,0
2017-11-06T00:42:52.384Z,0
2017-11-06T00:44:14.549Z,0
2017-11-06T00:45:36.072Z,0
2017-11-06T00:46:57.949Z,0
2017-11-06T00:48:20.154Z,0
2017-11-06T00:49:42.331Z,0
2017-11-06T00:51:04.183Z,0
2017-11-06T00:52:26.364Z,0
2017-11-06T00:53:48.203Z,0
2017-11-06T00:55:09.699Z,0
2017-11-06T00:56:31.864Z,0
2017-11-06T00:57:53.704Z,0
2017-11-06T00:59:15.564Z,0
2017-11-06T01:00:38.060Z,0
2017-11-06T01:02:00.234Z,0
2017-11-06T01:03:22.130Z,0
2017-11-06T01:04:44.081Z,0
2017-11-06T01:06:06.604Z,0
2017-11-06T01:07:28.818Z,0
2017-11-06T01:08:50.994Z,0
2017-11-06T01:10:12.508Z,0
2017-11-06T01:11:34.699Z,0
2017-11-06T01:12:56.562Z,0
2017-11-06T01:14:18.434Z,0
2017-11-06T01:15:40.649Z,0
2017-11-06T01:17:02.477Z,0
2017-11-06T01:18:25.046Z,0
2017-11-06T01:19:46.959Z,0
2017-11-06T01:21:09.605Z,0
2017-11-06T01:22:31.806Z,0
2017-11-06T01:23:53.665Z,0
2017-11-06T01:25:15.195Z,0
2017-11-06T01:26:37.707Z,0
2017-11-06T01:28:00.244Z,0
2017-11-06T01:29:22.469Z,0
2017-11-06T01:30:43.654Z,0
2017-11-06T01:32:05.513Z,0
2017-11-06T01:33:27.124Z,0
2017-11-06T01:34:49.304Z,0
2017-11-06T01:36:11.142Z,0
2017-11-06T01:37:47.978Z,0
2017-11-06T01:39:09.494Z,0
2017-11-06T01:40:31.382Z,0
2017-11-06T01:41:52.902Z,0
2017-11-06T01:43:14.655Z,0
2017-11-06T01:44:36.846Z,0
2017-11-06T01:45:58.339Z,0
2017-11-06T01:47:19.504Z,0
2017-11-06T01:48:41.025Z,0
2017-11-06T01:50:03.184Z,0
2017-11-06T01:51:24.396Z,0
2017-11-06T01:52:45.926Z,0
2017-11-06T01:54:08.092Z,0
2017-11-06T01:55:29.613Z,0
2017-11-06T01:56:51.958Z,0
2017-11-06T01:58:13.899Z,0
2017-11-06T01:59:35.750Z,0
2017-11-06T02:00:57.267Z,0
2017-11-06T02:02:18.865Z,0
2017-11-06T02:03:40.749Z,0
2017-11-06T02:05:03.165Z,0
2017-11-06T02:06:25.055Z,0
2017-11-06T02:07:46.550Z,0
2017-11-06T02:09:08.095Z,0
2017-11-06T02:10:29.266Z,0
2017-11-06T02:11:51.113Z,0
2017-11-06T02:13:13.346Z,0
2017-11-06T02:14:35.875Z,0
2017-11-06T02:15:57.616Z,0
2017-11-06T02:17:19.785Z,0
2017-11-06T02:18:42.274Z,0
2017-11-06T02:20:04.441Z,0
2017-11-06T02:21:26.676Z,0
2017-11-06T02:22:48.842Z,0
2017-11-06T02:24:10.403Z,0
2017-11-06T02:25:31.910Z,0
2017-11-06T02:26:54.506Z,0
2017-11-06T02:28:16.335Z,0
2017-11-06T02:29:38.266Z,0
2017-11-06T02:31:00.120Z,0
2017-11-06T02:32:22.358Z,0
2017-11-06T02:33:44.207Z,0
2017-11-06T02:35:06.415Z,0
2017-11-06T02:36:28.590Z,0
2017-11-06T02:37:50.691Z,0
2017-11-06T02:39:12.193Z,0
2017-11-06T02:40:34.375Z,0
2017-11-06T02:41:56.590Z,0
2017-11-06T02:43:18.096Z,0
2017-11-06T02:44:39.926Z,0
2017-11-06T02:46:02.475Z,0
2017-11-06T02:47:23.976Z,0
2017-11-06T02:48:45.826Z,0
2017-11-06T02:50:07.345Z,0
2017-11-06T02:51:29.615Z,0
2017-11-06T02:52:51.806Z,0
2017-11-06T02:54:13.956Z,0
2017-11-06T02:55:36.469Z,0
2017-11-06T02:56:58.755Z,0
2017-11-06T02:58:20.293Z,0
2017-11-06T02:59:42.141Z,0
2017-11-06T03:01:04.332Z,0
2017-11-06T03:02:26.536Z,0
2017-11-06T03:03:48.383Z,0
2017-11-06T03:05:10.542Z,0
2017-11-06T03:06:32.738Z,0
2017-11-06T03:07:54.945Z,0
2017-11-06T03:09:16.789Z,0
2017-11-06T03:10:38.436Z,0
2017-11-06T03:12:00.617Z,0
2017-11-06T03:13:22.434Z,0
2017-11-06T03:14:44.284Z,0
2017-11-06T03:16:06.444Z,0
2017-11-06T03:17:27.617Z,0
2017-11-06T03:18:49.845Z,0
2017-11-06T03:20:12.006Z,0
2017-11-06T03:21:34.534Z,0
2017-11-06T03:22:56.147Z,0
2017-11-06T03:24:18.440Z,0
2017-11-06T03:25:40.297Z,0
2017-11-06T03:27:01.799Z,0
2017-11-06T03:28:23.989Z,0
2017-11-06T03:29:45.903Z,0
2017-11-06T03:31:07.738Z,0
2017-11-06T03:32:29.833Z,0
2017-11-06T03:33:51.659Z,0
2017-11-06T03:35:12.828Z,0
2017-11-06T03:36:34.716Z,0
2017-11-06T03:37:57.259Z,0
2017-11-06T03:39:19.423Z,0
2017-11-06T03:40:40.986Z,0
2017-11-06T03:42:02.926Z,0
2017-11-06T03:43:25.127Z,0
2017-11-06T03:44:47.394Z,0
2017-11-06T03:46:09.666Z,0
2017-11-06T03:47:31.829Z,0
2017-11-06T03:48:53.581Z,0
2017-11-06T03:50:15.405Z,0
2017-11-06T03:51:36.920Z,0
2017-11-06T03:52:58.419Z,0
2017-11-06T03:54:19.973Z,0
2017-11-06T03:55:42.135Z,0
2017-11-06T03:57:03.647Z,0
2017-11-06T03:58:25.149Z,0
2017-11-06T03:59:46.897Z,0
2017-11-06T04:01:09.389Z,0
2017-11-06T04:02:30.936Z,0
2017-11-06T04:03:53.117Z,0
2017-11-06T04:05:15.277Z,0
2017-11-06T04:06:36.786Z,0
2017-11-06T04:07:58.978Z,0
2017-11-06T04:09:21.356Z,0
2017-11-06T04:10:43.184Z,0
2017-11-06T04:12:05.367Z,0
2017-11-06T04:13:27.564Z,0
2017-11-06T04:14:49.417Z,0
2017-11-06T04:16:11.267Z,0
2017-11-06T04:17:33.120Z,0
2017-11-06T04:18:55.654Z,0
2017-11-06T04:20:17.132Z,0
2017-11-06T04:21:38.814Z,0
2017-11-06T04:23:00.639Z,0
2017-11-06T04:24:22.557Z,0
2017-11-06T04:25:44.057Z,0
2017-11-06T04:27:05.959Z,0
2017-11-06T04:28:28.123Z,0
2017-11-06T04:29:50.366Z,0
2017-11-06T04:31:12.538Z,0
2017-11-06T04:32:34.397Z,0
2017-11-06T04:33:56.245Z,0
2017-11-06T04:35:18.411Z,0
2017-11-06T04:36:40.579Z,0
2017-11-06T04:38:02.411Z,0
2017-11-06T04:39:24.617Z,0
2017-11-06T04:40:46.798Z,0
2017-11-06T04:42:08.718Z,0
2017-11-06T04:43:30.964Z,0
2017-11-06T04:44:53.195Z,0
2017-11-06T04:46:14.364Z,0
2017-11-06T04:47:36.200Z,0
2017-11-06T04:48:58.368Z,0
2017-11-06T04:50:19.875Z,0
2017-11-06T04:51:42.056Z,0
2017-11-06T04:53:04.570Z,0
2017-11-06T04:54:26.981Z,0
2017-11-06T04:55:48.469Z,0
2017-11-06T04:57:10.325Z,0
2017-11-06T04:58:31.539Z,0
2017-11-06T04:59:53.036Z,0
2017-11-06T05:01:15.246Z,0
2017-11-06T05:02:37.803Z,0
2017-11-06T05:04:00.001Z,0
2017-11-06T05:05:21.843Z,0
2017-11-06T05:06:43.826Z,0
2017-11-06T05:08:06.333Z,0
2017-11-06T05:09:28.166Z,0
2017-11-06T05:10:49.705Z,0
2017-11-06T05:12:11.225Z,0
2017-11-06T05:13:33.189Z,0
2017-11-06T05:14:55.442Z,0
2017-11-06T05:16:17.713Z,0
2017-11-06T05:17:39.225Z,0
2017-11-06T05:19:01.055Z,0
2017-11-06T05:20:23.566Z,0
2017-11-06T05:21:44.756Z,0
2017-11-06T05:23:06.575Z,0
2017-11-06T05:24:28.417Z,0
2017-11-06T05:25:50.593Z,0
2017-11-06T05:27:12.476Z,0
2017-11-06T05:28:34.662Z,0
2017-11-06T05:29:56.843Z,0
2017-11-06T05:31:18.141Z,0
2017-11-06T05:32:40.406Z,0
2017-11-06T05:34:02.237Z,0
2017-11-06T05:35:24.765Z,0
2017-11-06T05:36:46.610Z,0
2017-11-06T05:38:08.834Z,0
2017-11-06T05:39:30.678Z,0
2017-11-06T05:40:51.847Z,0
2017-11-06T05:42:14.382Z,0
2017-11-06T05:43:36.876Z,0
2017-11-06T05:44:59.115Z,0
2017-11-06T05:46:21.303Z,0
2017-11-06T05:47:43.465Z,0
2017-11-06T05:49:05.656Z,0
2017-11-06T05:50:28.170Z,0
2017-11-06T05:51:50.465Z,0
2017-11-06T05:53:11.974Z,0
2017-11-06T05:54:33.824Z,0
2017-11-06T05:55:56.400Z,0
2017-11-06T05:57:18.893Z,0
2017-11-06T05:58:40.514Z,0
2017-11-06T06:00:02.414Z,0
2017-11-06T06:01:24.935Z,0
2017-11-06T06:02:46.814Z,0
2017-11-06T06:04:09.033Z,0
2017-11-06T06:05:31.550Z,0
2017-11-06T06:06:53.721Z,0
2017-11-06T06:08:15.561Z,0
2017-11-06T06:09:37.398Z,0
2017-11-06T06:10:59.614Z,0
2017-11-06T06:12:21.602Z,0
2017-11-06T06:13:43.866Z,0
2017-11-06T06:15:05.700Z,0
2017-11-06T06:16:27.192Z,0
2017-11-06T06:17:49.045Z,0
2017-11-06T06:19:11.569Z,0
2017-11-06T06:20:33.501Z,0
2017-11-06T06:21:55.706Z,0
2017-11-06T06:23:17.221Z,0
2017-11-06T06:24:39.790Z,0
2017-11-06T06:26:02.294Z,5
2017-11-06T06:27:24.512Z,5
2017-11-06T06:28:46.022Z,5
2017-11-06T06:30:07.860Z,5
2017-11-06T06:31:30.356Z,5
2017-11-06T06:32:52.769Z,5
2017-11-06T06:34:15.382Z,5
2017-11-06T06:35:37.375Z,10
2017-11-06T06:36:58.224Z,10
2017-11-06T06:38:19.389Z,10
2017-11-06T06:39:41.943Z,10
2017-11-06T06:41:03.777Z,15
2017-11-06T06:42:25.700Z,15
2017-11-06T06:43:47.910Z,15
2017-11-06T06:45:09.763Z,20
2017-11-06T06:46:31.263Z,20
2017-11-06T06:47:53.475Z,20
2017-11-06T06:49:15.309Z,25
2017-11-06T06:50:37.151Z,25
2017-11-06T06:51:59.308Z,25
2017-11-06T06:53:21.554Z,25
2017-11-06T06:54:43.353Z,30
2017-11-06T06:56:05.218Z,30
2017-11-06T06:57:26.845Z,30
2017-11-06T06:58:48.742Z,35
2017-11-06T07:00:10.632Z,35
2017-11-06T07:01:32.801Z,35
2017-11-06T07:02:55.320Z,40
2017-11-06T07:04:16.905Z,40
2017-11-06T07:05:38.732Z,40
2017-11-06T07:07:01.051Z,40
2017-11-06T07:08:23.242Z,45
2017-11-06T07:09:45.103Z,45
2017-11-06T07:11:07.328Z,45
2017-11-06T07:12:29.583Z,50
2017-11-06T07:13:52.082Z,50
2017-11-06T07:15:14.335Z,50
2017-11-06T07:16:37.244Z,50
2017-11-06T07:17:58.752Z,55
2017-11-06T07:19:20.942Z,55
2017-11-06T07:20:42.461Z,55
2017-11-06T07:22:04.437Z,60
2017-11-06T07:23:26.932Z,60
2017-11-06T07:24:49.216Z,60
2017-11-06T07:26:11.393Z,60
2017-11-06T07:27:33.807Z,60
2017-11-06T07:28:55.992Z,65
2017-11-06T07:30:18.512Z,65
2017-11-06T07:31:40.344Z,65
2017-11-06T07:33:02.205Z,65
2017-11-06T07:34:24.382Z,70
2017-11-06T07:35:46.240Z,70
2017-11-06T07:37:08.823Z,70
2017-11-06T07:38:31.283Z,70
2017-11-06T07:39:53.806Z,75
2017-11-06T07:41:15.984Z,75
2017-11-06T07:42:37.901Z,80
2017-11-06T07:43:59.452Z,80
2017-11-06T07:45:21.020Z,80
2017-11-06T07:46:42.865Z,80
2017-11-06T07:48:05.413Z,80
2017-11-06T07:49:27.269Z,80
2017-11-06T07:50:49.452Z,80
2017-11-06T07:52:11.951Z,85
2017-11-06T07:53:33.475Z,85
2017-11-06T07:54:55.318Z,85
2017-11-06T07:56:17.224Z,85
2017-11-06T07:57:39.412Z,85
2017-11-06T07:59:01.261Z,80
2017-11-06T08:00:23.893Z,80
2017-11-06T08:01:45.443Z,80
2017-11-06T08:03:08.044Z,80
2017-11-06T08:04:29.892Z,80
2017-11-06T08:05:52.124Z,85
2017-11-06T08:07:14.316Z,85
2017-11-06T08:08:36.172Z,90
2017-11-06T08:09:57.404Z,90
2017-11-06T08:11:19.899Z,90
2017-11-06T08:12:41.090Z,95
2017-11-06T08:14:03.288Z,95
2017-11-06T08:15:25.464Z,95
2017-11-06T08:16:46.690Z,95
2017-11-06T08:18:08.865Z,95
2017-11-06T08:19:31.383Z,95
2017-11-06T08:20:53.695Z,95
2017-11-06T08:22:15.944Z,95
2017-11-06T08:23:37.447Z,100
2017-11-06T08:25:00.025Z,100
2017-11-06T08:26:22.240Z,100
2017-11-06T08:27:44.114Z,100
2017-11-06T08:29:06.324Z,100
2017-11-06T08:30:28.515Z,100
2017-11-06T08:31:51.033Z,100
2017-11-06T08:33:13.201Z,100
2017-11-06T08:34:35.708Z,100
2017-11-06T08:35:57.269Z,100
2017-11-06T08:37:19.143Z,100
2017-11-06T08:38:41.642Z,100
2017-11-06T08:40:03.884Z,100
2017-11-06T08:41:26.421Z,100
2017-11-06T08:42:48.263Z,100
2017-11-06T08:44:10.453Z,100
2017-11-06T08:45:32.641Z,100
2017-11-06T08:46:54.834Z,100
2017-11-06T08:48:17.022Z,100
2017-11-06T08:49:39.193Z,100
2017-11-06T08:51:01.705Z,100
2017-11-06T08:52:23.684Z,100
2017-11-06T08:53:45.564Z,100
2017-11-06T08:55:08.061Z,100
2017-11-06T08:56:30.354Z,100
2017-11-06T08:57:52.186Z,105
2017-11-06T08:59:14.027Z,105
2017-11-06T09:00:36.204Z,105
2017-11-06T09:01:58.383Z,105
2017-11-06T09:03:20.581Z,105
2017-11-06T09:04:43.100Z,105
2017-11-06T09:06:05.182Z,105
2017-11-06T09:07:27.372Z,105
2017-11-06T09:08:49.552Z,105
2017-11-06T09:10:10.742Z,105
2017-11-06T09:11:32.667Z,105
2017-11-06T09:12:54.833Z,105
2017-11-06T09:14:17.363Z,110
2017-11-06T09:15:38.874Z,110
2017-11-06T09:17:01.391Z,110
2017-11-06T09:18:23.565Z,110
2017-11-06T09:19:45.400Z,110
2017-11-06T09:21:07.602Z,110
2017-11-06T09:22:28.777Z,110
2017-11-06T09:23:50.969Z,115
2017-11-06T09:25:13.173Z,115
2017-11-06T09:26:35.115Z,115
2017-11-06T09:27:57.555Z,115
2017-11-06T09:29:20.158Z,115
2017-11-06T09:30:42.336Z,115
2017-11-06T09:32:04.582Z,110
2017-11-06T09:33:27.009Z,115
2017-11-06T09:34:49.662Z,115
2017-11-06T09:36:11.833Z,120
2017-11-06T09:37:34.025Z,115
2017-11-06T09:38:56.134Z,110
2017-11-06T09:40:17.707Z,115
2017-11-06T09:41:39.236Z,115
2017-11-06T09:43:01.454Z,115
2017-11-06T09:44:23.542Z,115
2017-11-06T09:45:45.732Z,115
2017-11-06T09:47:07.571Z,115
2017-11-06T09:48:29.502Z,115
2017-11-06T09:49:51.244Z,120
2017-11-06T09:51:12.761Z,120
2017-11-06T09:52:33.930Z,120
2017-11-06T09:53:55.166Z,120
2017-11-06T09:55:17.577Z,115
2017-11-06T09:56:39.425Z,120
2017-11-06T09:58:02.026Z,120
2017-11-06T09:59:24.224Z,120
2017-11-06T10:00:45.752Z,120
2017-11-06T10:02:08.260Z,120
2017-11-06T10:03:29.795Z,115
2017-11-06T10:04:52.418Z,120
2017-11-06T10:06:14.862Z,120
2017-11-06T10:07:37.040Z,120
2017-11-06T10:08:59.336Z,120
2017-11-06T10:10:20.543Z,120
2017-11-06T10:11:42.723Z,120
2017-11-06T10:13:04.913Z,120
2017-11-06T10:14:26.827Z,120
2017-11-06T10:15:49.014Z,120
2017-11-06T10:17:11.275Z,120
2017-11-06T10:18:32.772Z,120
2017-11-06T10:19:54.629Z,120
2017-11-06T10:21:16.929Z,120
2017-11-06T10:22:39.134Z,120
2017-11-06T10:24:00.981Z,120
2017-11-06T10:25:22.823Z,120
2017-11-06T10:26:45.402Z,120
2017-11-06T10:28:07.504Z,120
2017-11-06T10:29:29.324Z,120
2017-11-06T10:30:51.506Z,120
2017-11-06T10:32:13.752Z,120
2017-11-06T10:33:36.284Z,120
2017-11-06T10:34:58.780Z,120
2017-11-06T10:36:20.946Z,120
2017-11-06T10:37:42.788Z,125
2017-11-06T10:39:04.635Z,125
2017-11-06T10:40:26.505Z,125
2017-11-06T10:41:48.114Z,125
2017-11-06T10:43:10.293Z,125
2017-11-06T10:44:31.917Z,125
2017-11-06T10:45:53.813Z,125
2017-11-06T10:47:15.826Z,125
2017-11-06T10:48:37.993Z,125
2017-11-06T10:49:59.554Z,130
2017-11-06T10:51:21.728Z,125
2017-11-06T10:52:43.912Z,125
2017-11-06T10:54:06.422Z,125
2017-11-06T10:55:28.268Z,120
2017-11-06T10:56:50.455Z,125
2017-11-06T10:58:12.823Z,135
2017-11-06T10:59:35.035Z,135
2017-11-06T11:00:57.208Z,140
2017-11-06T11:02:19.143Z,140
2017-11-06T11:03:41.327Z,140
2017-11-06T11:05:03.905Z,135
2017-11-06T11:06:26.394Z,130
2017-11-06T11:07:48.299Z,130
2017-11-06T11:09:10.484Z,125
2017-11-06T11:10:32.646Z,125
2017-11-06T11:11:54.902Z,125
2017-11-06T11:13:17.424Z,125
2017-11-06T11:14:39.705Z,125
2017-11-06T11:16:01.872Z,125
2017-11-06T11:17:23.791Z,120
2017-11-06T11:18:45.959Z,120
2017-11-06T11:20:07.128Z,120
2017-11-06T11:21:29.294Z,120
2017-11-06T11:22:52.139Z,120
2017-11-06T11:24:14.327Z,120
2017-11-06T11:25:36.970Z,120
2017-11-06T11:26:58.854Z,120
2017-11-06T11:28:21.015Z,120
2017-11-06T11:29:43.204Z,120
2017-11-06T11:31:04.716Z,120
2017-11-06T11:32:27.216Z,120
2017-11-06T11:33:49.426Z,120
2017-11-06T11:35:11.629Z,120
2017-11-06T11:36:34.205Z,125
2017-11-06T11:37:56.698Z,120
2017-11-06T11:39:18.886Z,120
2017-11-06T11:40:41.065Z,120
2017-11-06T11:42:02.958Z,120
2017-11-06T11:43:25.180Z,120
2017-11-06T11:44:47.344Z,120
2017-11-06T11:46:09.895Z,120
2017-11-06T11:47:32.083Z,120
2017-11-06T11:48:54.197Z,120
2017-11-06T11:50:15.765Z,120
2017-11-06T11:51:38.279Z,120
2017-11-06T11:53:00.185Z,120
2017-11-06T11:54:22.378Z,120
2017-11-06T11:55:44.247Z,120
2017-11-06T11:57:06.436Z,120
2017-11-06T11:58:28.285Z,125
2017-11-06T11:59:50.795Z,120
2017-11-06T12:01:12.966Z,120
2017-11-06T12:02:34.840Z,120
2017-11-06T12:03:57.414Z,120
2017-11-06T12:05:19.672Z,120
2017-11-06T12:06:41.645Z,125
2017-11-06T12:08:03.828Z,120
2017-11-06T12:09:26.328Z,120
2017-11-06T12:10:48.502Z,110
2017-11-06T12:12:10.689Z,105
2017-11-06T12:13:32.870Z,110
2017-11-06T12:14:55.401Z,120
2017-11-06T12:16:17.925Z,125
2017-11-06T12:17:39.799Z,120
2017-11-06T12:19:01.317Z,120
2017-11-06T12:20:23.246Z,120
2017-11-06T12:21:44.817Z,120
2017-11-06T12:23:06.776Z,120
2017-11-06T12:24:28.306Z,120
2017-11-06T12:25:50.156Z,120
2017-11-06T12:27:11.712Z,120
2017-11-06T12:28:33.886Z,120
2017-11-06T12:29:56.055Z,120
2017-11-06T12:31:17.231Z,120
2017-11-06T12:32:39.408Z,110
2017-11-06T12:34:01.960Z,110
2017-11-06T12:35:23.472Z,120
2017-11-06T12:36:45.676Z,120
2017-11-06T12:38:07.846Z,115
2017-11-06T12:39:30.031Z,120
2017-11-06T12:40:52.555Z,115
2017-11-06T12:42:14.402Z,115
2017-11-06T12:43:36.933Z,110
2017-11-06T12:44:59.535Z,115
2017-11-06T12:46:21.716Z,120
2017-11-06T12:47:44.001Z,110
2017-11-06T12:49:06.183Z,115
2017-11-06T12:50:28.776Z,110
2017-11-06T12:51:51.297Z,110
2017-11-06T12:53:13.472Z,105
2017-11-06T12:54:35.644Z,115
2017-11-06T12:55:58.205Z,110
2017-11-06T12:57:20.408Z,105
2017-11-06T12:58:42.953Z,105
2017-11-06T13:00:05.144Z,105
2017-11-06T13:01:27.235Z,105
2017-11-06T13:02:49.074Z,110
2017-11-06T13:04:11.278Z,105
2017-11-06T13:05:33.575Z,105
2017-11-06T13:06:55.753Z,105
2017-11-06T13:08:17.602Z,105
2017-11-06T13:09:40.213Z,100
2017-11-06T13:11:02.727Z,105
2017-11-06T13:12:25.387Z,100
2017-11-06T13:13:47.885Z,100
2017-11-06T13:15:09.935Z,100
2017-11-06T13:16:32.117Z,100
2017-11-06T13:17:53.714Z,100
2017-11-06T13:19:15.915Z,100
2017-11-06T13:20:38.443Z,95
2017-11-06T13:22:00.368Z,95
2017-11-06T13:23:22.610Z,95
2017-11-06T13:24:44.497Z,95
2017-11-06T13:26:07.027Z,95
2017-11-06T13:27:29.231Z,95
2017-11-06T13:28:51.095Z,95
2017-11-06T13:30:13.026Z,95
2017-11-06T13:31:34.555Z,95
2017-11-06T13:32:56.790Z,95
2017-11-06T13:34:18.964Z,95
2017-11-06T13:35:41.243Z,95
2017-11-06T13:37:03.455Z,95
2017-11-06T13:38:25.345Z,95
2017-11-06T13:39:47.186Z,95
2017-11-06T13:41:08.716Z,95
2017-11-06T13:42:30.909Z,95
2017-11-06T13:43:52.430Z,95
2017-11-06T13:45:14.950Z,100
2017-11-06T13:46:37.250Z,95
2017-11-06T13:47:59.845Z,95
2017-11-06T13:49:21.698Z,95
2017-11-06T13:50:43.934Z,95
2017-11-06T13:52:06.253Z,95
2017-11-06T13:53:28.437Z,95
2017-11-06T13:54:50.632Z,95
2017-11-06T13:56:13.343Z,95
2017-11-06T13:57:35.545Z,95
2017-11-06T13:58:58.067Z,95
2017-11-06T14:00:20.405Z,90
2017-11-06T14:01:42.246Z,90
2017-11-06T14:03:04.484Z,85
2017-11-06T14:04:26.694Z,90
2017-11-06T14:05:47.545Z,90
2017-11-06T14:07:09.405Z,90
2017-11-06T14:08:31.615Z,90
2017-11-06T14:09:53.795Z,95
2017-11-06T14:11:15.669Z,90
2017-11-06T14:12:38.155Z,90
2017-11-06T14:14:00.695Z,90
2017-11-06T14:15:22.897Z,90
2017-11-06T14:16:45.116Z,90
2017-11-06T14:18:07.304Z,90
2017-11-06T14:19:28.838Z,90
2017-11-06T14:20:51.035Z,85
2017-11-06T14:22:12.897Z,85
2017-11-06T14:23:35.485Z,90
2017-11-06T14:24:57.338Z,90
2017-11-06T14:26:19.521Z,90
2017-11-06T14:27:41.078Z,90
2017-11-06T14:29:03.557Z,85
2017-11-06T14:30:25.757Z,85
2017-11-06T14:31:47.949Z,85
2017-11-06T14:33:10.488Z,85
2017-11-06T14:34:32.665Z,85
2017-11-06T14:35:54.182Z,85
2017-11-06T14:37:16.108Z,85
2017-11-06T14:38:37.965Z,90
2017-11-06T14:40:00.681Z,90
2017-11-06T14:41:22.191Z,90
2017-11-06T14:42:44.046Z,95
2017-11-06T14:44:05.900Z,90
2017-11-06T14:45:28.075Z,90
2017-11-06T14:46:50.257Z,85
2017-11-06T14:48:11.845Z,85
2017-11-06T14:49:34.414Z,80
2017-11-06T14:50:56.349Z,75
2017-11-06T14:52:18.786Z,70
2017-11-06T14:53:40.999Z,65
2017-11-06T14:55:02.852Z,60
2017-11-06T14:56:25.046Z,55
2017-11-06T14:57:47.601Z,55
2017-11-06T14:59:10.186Z,55
2017-11-06T15:00:32.089Z,50
2017-11-06T15:01:54.371Z,50
2017-11-06T15:03:16.245Z,50
2017-11-06T15:04:38.418Z,45
2017-11-06T15:06:00.993Z,45
2017-11-06T15:07:23.220Z,45
2017-11-06T15:08:45.905Z,40
2017-11-06T15:10:08.136Z,40
2017-11-06T15:11:30.006Z,40
2017-11-06T15:12:52.643Z,35
2017-11-06T15:14:14.545Z,35
2017-11-06T15:15:36.750Z,35
2017-11-06T15:16:58.943Z,30
2017-11-06T15:18:21.414Z,30
2017-11-06T15:19:43.379Z,25
2017-11-06T15:21:05.565Z,25
2017-11-06T15:22:27.897Z,25
2017-11-06T15:23:50.079Z,20
2017-11-06T15:25:12.261Z,20
2017-11-06T15:26:34.457Z,20
2017-11-06T15:27:56.656Z,20
2017-11-06T15:29:18.862Z,15
2017-11-06T15:30:41.391Z,15
2017-11-06T15:32:03.293Z,15
2017-11-06T15:33:25.496Z,15
2017-11-06T15:34:48.395Z,10
2017-11-06T15:36:10.283Z,10
2017-11-06T15:37:32.530Z,10
2017-11-06T15:38:54.762Z,10
2017-11-06T15:40:17.412Z,10
2017-11-06T15:41:39.935Z,5
2017-11-06T15:43:01.819Z,5
2017-11-06T15:44:23.675Z,5
2017-11-06T15:45:46.213Z,5
2017-11-06T15:47:08.766Z,5
2017-11-06T15:48:30.707Z,5
2017-11-06T15:49:52.894Z,0
2017-11-06T15:51:15.462Z,0
2017-11-06T15:52:37.648Z,0
2017-11-06T15:53:59.855Z,0
2017-11-06T15:55:22.359Z,0
2017-11-06T15:56:44.862Z,0
2017-11-06T15:58:07.379Z,0
2017-11-06T15:59:28.894Z,0
2017-11-06T16:00:51.414Z,0
2017-11-06T16:02:13.946Z,0
2017-11-06T16:03:36.469Z,0
2017-11-06T16:04:58.001Z,0
2017-11-06T16:06:19.985Z,0
2017-11-06T16:07:42.533Z,0
2017-11-06T16:09:04.386Z,0
2017-11-06T16:10:26.592Z,0
2017-11-06T16:11:49.130Z,0
2017-11-06T16:13:11.648Z,0
2017-11-06T16:14:34.164Z,0
2017-11-06T16:15:56.688Z,0
2017-11-06T16:17:18.908Z,0
2017-11-06T16:18:41.117Z,0
2017-11-06T16:20:02.984Z,0
2017-11-06T16:21:25.206Z,0
2017-11-06T16:22:46.861Z,0
2017-11-06T16:24:09.686Z,0
2017-11-06T16:25:31.636Z,0
2017-11-06T16:26:53.814Z,0
2017-11-06T16:28:16.044Z,0
2017-11-06T16:29:37.900Z,0
2017-11-06T16:31:00.386Z,0
2017-11-06T16:32:22.609Z,0
2017-11-06T16:33:44.802Z,0
2017-11-06T16:35:07.412Z,0
2017-11-06T16:36:29.565Z,0
2017-11-06T16:37:51.458Z,0
2017-11-06T16:39:13.325Z,0
2017-11-06T16:40:35.837Z,0
2017-11-06T16:41:58.053Z,0
2017-11-06T16:43:19.584Z,0
2017-11-06T16:44:41.798Z,0
2017-11-06T16:46:04.078Z,0
2017-11-06T16:47:26.283Z,0
2017-11-06T16:48:48.474Z,0
2017-11-06T16:50:10.704Z,0
2017-11-06T16:51:32.946Z,0
2017-11-06T16:52:55.188Z,0
2017-11-06T16:54:17.378Z,0
2017-11-06T16:55:39.302Z,0
2017-11-06T16:57:01.499Z,0
2017-11-06T16:58:24.156Z,0
2017-11-06T16:59:46.014Z,0
2017-11-06T17:01:08.566Z,0
2017-11-06T17:02:31.376Z,0
2017-11-06T17:03:53.566Z,0
2017-11-06T17:05:15.777Z,0
2017-11-06T17:06:38.008Z,0
2017-11-06T17:08:00.307Z,0
2017-11-06T17:09:22.507Z,0
2017-11-06T17:10:44.769Z,0
2017-11-06T17:12:07.316Z,0
2017-11-06T17:13:29.989Z,0
2017-11-06T17:14:51.884Z,0
2017-11-06T17:16:14.087Z,0
2017-11-06T17:17:36.625Z,0
2017-11-06T17:18:59.059Z,0
2017-11-06T17:20:21.607Z,0
2017-11-06T17:21:43.867Z,0
2017-11-06T17:23:06.385Z,0
2017-11-06T17:24:28.803Z,0
2017-11-06T17:25:51.017Z,0
2017-11-06T17:27:13.548Z,0
2017-11-06T17:28:35.444Z,0
2017-11-06T17:29:57.303Z,0
2017-11-06T17:31:19.273Z,0
2017-11-06T17:32:41.461Z,0
2017-11-06T17:34:03.325Z,0
2017-11-06T17:35:25.854Z,0
2017-11-06T17:36:47.708Z,0
2017-11-06T17:38:09.909Z,0
2017-11-06T17:39:31.510Z,0
2017-11-06T17:40:54.065Z,0
2017-11-06T17:42:16.332Z,0
2017-11-06T17:43:38.550Z,0
2017-11-06T17:45:01.167Z,0
2017-11-06T17:46:23.069Z,0
2017-11-06T17:47:45.020Z,0
2017-11-06T17:49:07.558Z,0
2017-11-06T17:50:30.118Z,0
2017-11-06T17:51:51.974Z,0
2017-11-06T17:53:13.913Z,0
2017-11-06T17:54:36.470Z,0
2017-11-06T17:55:58.741Z,0
2017-11-06T17:57:20.698Z,0
2017-11-06T17:58:43.200Z,0
2017-11-06T18:00:05.087Z,0
2017-11-06T18:01:27.315Z,0
2017-11-06T18:02:49.884Z,0
2017-11-06T18:04:12.547Z,0
2017-11-06T18:05:34.404Z,0
2017-11-06T18:06:56.938Z,0
2017-11-06T18:08:18.913Z,0
2017-11-06T18:09:41.303Z,0
2017-11-06T18:11:03.915Z,0
2017-11-06T18:12:26.219Z,0
2017-11-06T18:13:48.834Z,0
2017-11-06T18:15:11.382Z,0
2017-11-06T18:16:33.616Z,0
2017-11-06T18:17:56.253Z,0
2017-11-06T18:19:18.449Z,0
2017-11-06T18:20:41.000Z,0
2017-11-06T18:22:03.618Z,0
2017-11-06T18:23:25.908Z,0
2017-11-06T18:24:48.999Z,0
2017-11-06T18:26:11.639Z,0
2017-11-06T18:27:33.858Z,0
2017-11-06T18:28:56.054Z,0
2017-11-06T18:30:18.237Z,0
2017-11-06T18:31:39.775Z,0
2017-11-06T18:33:02.346Z,0
2017-11-06T18:34:24.557Z,0
2017-11-06T18:35:46.824Z,0
2017-11-06T18:37:09.355Z,0
2017-11-06T18:38:31.891Z,0
2017-11-06T18:39:54.402Z,0
2017-11-06T18:41:16.304Z,0
2017-11-06T18:42:38.483Z,0
2017-11-06T18:44:01.047Z,0
2017-11-06T18:45:22.909Z,0
2017-11-06T18:46:45.411Z,0
2017-11-06T18:48:07.966Z,0
2017-11-06T18:49:30.535Z,0
2017-11-06T18:50:52.768Z,0
2017-11-06T18:52:29.546Z,0
2017-11-06T18:53:52.102Z,0
2017-11-06T18:55:14.674Z,0
2017-11-06T18:56:36.872Z,0
2017-11-06T18:57:58.798Z,0
2017-11-06T18:59:21.335Z,0
2017-11-06T19:00:43.752Z,0
2017-11-06T19:02:06.089Z,0
2017-11-06T19:03:28.609Z,0
2017-11-06T19:04:50.893Z,0
2017-11-06T19:06:12.755Z,0
2017-11-06T19:07:35.370Z,0
2017-11-06T19:08:57.570Z,0
2017-11-06T19:10:19.795Z,0
2017-11-06T19:11:41.748Z,0
2017-11-06T19:13:04.275Z,0
2017-11-06T19:14:26.488Z,0
2017-11-06T19:15:48.999Z,0
2017-11-06T19:17:10.944Z,0
2017-11-06T19:18:33.175Z,0
2017-11-06T19:19:55.768Z,0
2017-11-06T19:21:18.327Z,0
2017-11-06T19:22:40.897Z,0
2017-11-06T19:24:03.163Z,0
2017-11-06T19:25:57.209Z,0
2017-11-06T19:27:19.513Z,0
2017-11-06T19:28:42.084Z,0
2017-11-06T19:30:04.665Z,0
2017-11-06T19:31:27.235Z,0
2017-11-06T19:32:49.459Z,0
2017-11-06T19:34:12.002Z,0
2017-11-06T19:35:34.566Z,0
2017-11-06T19:36:56.827Z,0
2017-11-06T19:38:19.244Z,0
2017-11-06T19:39:41.584Z,0
2017-11-06T19:41:03.872Z,0
2017-11-06T19:42:25.762Z,0
2017-11-06T19:43:47.944Z,0